sensor_id;sensor_type;location;lat;lon;timestamp;pressure;altitude;pressure_sealevel;temperature;humidity
38716;BME280;24833;49.324;8.694;2023-06-24T00:01:38;100598.41;;;19.40;59.35
38716;BME280;24833;49.324;8.694;2023-06-24T00:04:05;100596.16;;;19.37;59.49
38716;BME280;24833;49.324;8.694;2023-06-24T00:06:32;100591.81;;;19.36;59.24
38716;BME280;24833;49.324;8.694;2023-06-24T00:08:59;100591.81;;;19.36;58.91
38716;BME280;24833;49.324;8.694;2023-06-24T00:11:30;100599.78;;;19.30;59.35
38716;BME280;24833;49.324;8.694;2023-06-24T00:13:57;100603.56;;;19.29;59.74
38716;BME280;24833;49.324;8.694;2023-06-24T00:16:24;100589.06;;;19.24;59.76
38716;BME280;24833;49.324;8.694;2023-06-24T00:18:55;100595.53;;;19.23;59.62
38716;BME280;24833;49.324;8.694;2023-06-24T00:21:27;100584.94;;;19.21;59.24
38716;BME280;24833;49.324;8.694;2023-06-24T00:23:59;100585.19;;;19.20;59.58
38716;BME280;24833;49.324;8.694;2023-06-24T00:26:28;100596.72;;;19.15;59.89
38716;BME280;24833;49.324;8.694;2023-06-24T00:28:55;100594.00;;;19.15;60.17
38716;BME280;24833;49.324;8.694;2023-06-24T00:31:22;100588.00;;;19.13;59.63
38716;BME280;24833;49.324;8.694;2023-06-24T00:33:49;100589.25;;;19.11;59.64
38716;BME280;24833;49.324;8.694;2023-06-24T00:36:19;100588.44;;;19.10;60.07
38716;BME280;24833;49.324;8.694;2023-06-24T00:38:46;100594.69;;;19.11;59.69
38716;BME280;24833;49.324;8.694;2023-06-24T00:41:13;100595.97;;;19.08;59.81
38716;BME280;24833;49.324;8.694;2023-06-24T00:43:42;100598.31;;;19.04;60.33
38716;BME280;24833;49.324;8.694;2023-06-24T00:46:10;100588.53;;;19.03;60.47
38716;BME280;24833;49.324;8.694;2023-06-24T00:48:38;100591.72;;;19.00;60.36
38716;BME280;24833;49.324;8.694;2023-06-24T00:51:05;100593.59;;;19.00;60.06
38716;BME280;24833;49.324;8.694;2023-06-24T00:53:32;100589.22;;;18.99;60.37
38716;BME280;24833;49.324;8.694;2023-06-24T00:55:59;100589.69;;;18.96;60.91
38716;BME280;24833;49.324;8.694;2023-06-24T00:58:31;100595.59;;;18.93;60.52
38716;BME280;24833;49.324;8.694;2023-06-24T01:00:59;100597.44;;;18.92;60.79
38716;BME280;24833;49.324;8.694;2023-06-24T01:03:28;100593.09;;;18.91;60.76
38716;BME280;24833;49.324;8.694;2023-06-24T01:05:57;100589.56;;;18.91;60.15
38716;BME280;24833;49.324;8.694;2023-06-24T01:08:24;100597.91;;;18.89;60.19
38716;BME280;24833;49.324;8.694;2023-06-24T01:10:52;100606.72;;;18.85;60.71
38716;BME280;24833;49.324;8.694;2023-06-24T01:13:19;100600.47;;;18.84;60.77
38716;BME280;24833;49.324;8.694;2023-06-24T01:15:47;100604.25;;;18.83;60.42
38716;BME280;24833;49.324;8.694;2023-06-24T01:18:21;100602.84;;;18.81;60.88
38716;BME280;24833;49.324;8.694;2023-06-24T01:21:09;100607.63;;;18.78;61.11
38716;BME280;24833;49.324;8.694;2023-06-24T01:24:04;100605.97;;;18.77;61.00
38716;BME280;24833;49.324;8.694;2023-06-24T01:29:52;100606.88;;;18.71;61.22
38716;BME280;24833;49.324;8.694;2023-06-24T01:32:41;100610.06;;;18.68;61.85
38716;BME280;24833;49.324;8.694;2023-06-24T01:35:16;100601.13;;;18.68;61.47
38716;BME280;24833;49.324;8.694;2023-06-24T01:37:51;100597.19;;;18.64;61.86
38716;BME280;24833;49.324;8.694;2023-06-24T01:40:38;100605.75;;;18.61;62.06
38716;BME280;24833;49.324;8.694;2023-06-24T01:43:09;100600.78;;;18.58;62.28
38716;BME280;24833;49.324;8.694;2023-06-24T01:45:42;100598.56;;;18.55;62.23
38716;BME280;24833;49.324;8.694;2023-06-24T01:48:22;100602.53;;;18.52;62.20
38716;BME280;24833;49.324;8.694;2023-06-24T01:50:59;100599.22;;;18.50;62.32
38716;BME280;24833;49.324;8.694;2023-06-24T01:53:30;100606.53;;;18.49;62.33
38716;BME280;24833;49.324;8.694;2023-06-24T01:56:00;100595.94;;;18.48;62.14
38716;BME280;24833;49.324;8.694;2023-06-24T01:58:30;100595.34;;;18.46;61.84
38716;BME280;24833;49.324;8.694;2023-06-24T02:00:59;100599.31;;;18.43;62.65
38716;BME280;24833;49.324;8.694;2023-06-24T02:03:28;100592.25;;;18.42;62.39
38716;BME280;24833;49.324;8.694;2023-06-24T02:05:57;100592.31;;;18.36;62.90
38716;BME280;24833;49.324;8.694;2023-06-24T02:08:26;100593.97;;;18.37;62.59
38716;BME280;24833;49.324;8.694;2023-06-24T02:10:56;100599.03;;;18.33;62.66
38716;BME280;24833;49.324;8.694;2023-06-24T02:13:25;100594.44;;;18.34;62.30
38716;BME280;24833;49.324;8.694;2023-06-24T02:15:53;100593.38;;;18.35;62.03
38716;BME280;24833;49.324;8.694;2023-06-24T02:18:22;100586.69;;;18.37;61.65
38716;BME280;24833;49.324;8.694;2023-06-24T02:20:51;100588.56;;;18.37;62.19
38716;BME280;24833;49.324;8.694;2023-06-24T02:23:19;100589.84;;;18.34;62.59
38716;BME280;24833;49.324;8.694;2023-06-24T02:25:47;100589.63;;;18.36;62.15
38716;BME280;24833;49.324;8.694;2023-06-24T02:28:17;100588.56;;;18.37;62.22
38716;BME280;24833;49.324;8.694;2023-06-24T02:30:45;100595.84;;;18.36;61.97
38716;BME280;24833;49.324;8.694;2023-06-24T02:33:14;100593.97;;;18.37;61.75
38716;BME280;24833;49.324;8.694;2023-06-24T02:35:43;100590.69;;;18.35;62.29
38716;BME280;24833;49.324;8.694;2023-06-24T02:38:12;100590.69;;;18.35;61.90
38716;BME280;24833;49.324;8.694;2023-06-24T02:40:39;100590.09;;;18.33;62.02
38716;BME280;24833;49.324;8.694;2023-06-24T02:43:06;100594.66;;;18.32;62.15
38716;BME280;24833;49.324;8.694;2023-06-24T02:45:34;100599.22;;;18.32;61.59
38716;BME280;24833;49.324;8.694;2023-06-24T02:48:02;100603.63;;;18.33;61.20
38716;BME280;24833;49.324;8.694;2023-06-24T02:50:31;100609.03;;;18.33;61.22
38716;BME280;24833;49.324;8.694;2023-06-24T02:52:58;100600.91;;;18.33;60.62
38716;BME280;24833;49.324;8.694;2023-06-24T02:55:31;100603.63;;;18.33;60.26
38716;BME280;24833;49.324;8.694;2023-06-24T02:58:03;100589.47;;;18.31;60.36
38716;BME280;24833;49.324;8.694;2023-06-24T03:00:46;100604.88;;;18.30;59.86
38716;BME280;24833;49.324;8.694;2023-06-24T03:03:18;100600.75;;;18.28;60.65
38716;BME280;24833;49.324;8.694;2023-06-24T03:05:51;100602.00;;;18.25;59.82
38716;BME280;24833;49.324;8.694;2023-06-24T03:08:21;100603.31;;;18.22;60.38
38716;BME280;24833;49.324;8.694;2023-06-24T03:10:54;100608.72;;;18.22;59.30
38716;BME280;24833;49.324;8.694;2023-06-24T03:13:24;100609.53;;;18.23;59.41
38716;BME280;24833;49.324;8.694;2023-06-24T03:16:21;100608.13;;;18.20;59.29
38716;BME280;24833;49.324;8.694;2023-06-24T03:18:53;100611.88;;;18.19;59.40
38716;BME280;24833;49.324;8.694;2023-06-24T03:21:21;100612.91;;;18.18;59.15
38716;BME280;24833;49.324;8.694;2023-06-24T03:23:50;100606.31;;;18.14;58.78
38716;BME280;24833;49.324;8.694;2023-06-24T03:26:17;100612.78;;;18.13;59.16
38716;BME280;24833;49.324;8.694;2023-06-24T03:28:45;100615.91;;;18.10;59.27
38716;BME280;24833;49.324;8.694;2023-06-24T03:31:17;100615.09;;;18.10;59.24
38716;BME280;24833;49.324;8.694;2023-06-24T03:33:44;100625.06;;;18.09;58.84
38716;BME280;24833;49.324;8.694;2023-06-24T03:36:14;100616.38;;;18.07;59.00
38716;BME280;24833;49.324;8.694;2023-06-24T03:38:41;100630.94;;;18.06;58.73
38716;BME280;24833;49.324;8.694;2023-06-24T03:41:09;100612.22;;;18.05;58.68
38716;BME280;24833;49.324;8.694;2023-06-24T03:43:37;100619.50;;;18.04;58.87
38716;BME280;24833;49.324;8.694;2023-06-24T03:46:04;100617.03;;;18.03;59.22
38716;BME280;24833;49.324;8.694;2023-06-24T03:48:31;100616.44;;;18.01;59.01
38716;BME280;24833;49.324;8.694;2023-06-24T03:50:59;100621.84;;;18.01;58.71
38716;BME280;24833;49.324;8.694;2023-06-24T03:53:27;100626.44;;;18.00;59.04
38716;BME280;24833;49.324;8.694;2023-06-24T03:55:55;100630.19;;;17.99;59.48
38716;BME280;24833;49.324;8.694;2023-06-24T03:58:22;100625.78;;;17.98;59.11
38716;BME280;24833;49.324;8.694;2023-06-24T04:00:49;100632.88;;;17.99;58.63
38716;BME280;24833;49.324;8.694;2023-06-24T04:03:16;100631.00;;;18.00;59.49
38716;BME280;24833;49.324;8.694;2023-06-24T04:05:46;100616.88;;;17.97;59.41
38716;BME280;24833;49.324;8.694;2023-06-24T04:08:13;100621.44;;;17.97;60.10
38716;BME280;24833;49.324;8.694;2023-06-24T04:10:41;100633.91;;;17.98;59.93
38716;BME280;24833;49.324;8.694;2023-06-24T04:13:11;100635.59;;;17.99;59.43
38716;BME280;24833;49.324;8.694;2023-06-24T04:15:38;100631.84;;;18.00;60.13
38716;BME280;24833;49.324;8.694;2023-06-24T04:18:06;100633.47;;;18.01;60.74
38716;BME280;24833;49.324;8.694;2023-06-24T04:20:33;100630.31;;;18.04;59.60
38716;BME280;24833;49.324;8.694;2023-06-24T04:23:04;100636.53;;;18.05;60.92
38716;BME280;24833;49.324;8.694;2023-06-24T04:25:32;100633.84;;;18.05;62.05
38716;BME280;24833;49.324;8.694;2023-06-24T04:28:00;100627.19;;;18.07;60.97
38716;BME280;24833;49.324;8.694;2023-06-24T04:30:27;100631.31;;;18.10;61.08
38716;BME280;24833;49.324;8.694;2023-06-24T04:32:54;100633.78;;;18.11;61.82
38716;BME280;24833;49.324;8.694;2023-06-24T04:35:21;100639.19;;;18.11;61.76
38716;BME280;24833;49.324;8.694;2023-06-24T04:37:48;100635.47;;;18.12;61.66
38716;BME280;24833;49.324;8.694;2023-06-24T04:40:18;100643.56;;;18.12;61.79
38716;BME280;24833;49.324;8.694;2023-06-24T04:42:46;100638.75;;;18.14;61.78
38716;BME280;24833;49.324;8.694;2023-06-24T04:45:13;100642.06;;;18.16;61.56
38716;BME280;24833;49.324;8.694;2023-06-24T04:47:40;100654.75;;;18.16;61.75
38716;BME280;24833;49.324;8.694;2023-06-24T04:50:08;100658.28;;;18.16;61.51
38716;BME280;24833;49.324;8.694;2023-06-24T04:52:36;100648.06;;;18.18;61.42
38716;BME280;24833;49.324;8.694;2023-06-24T04:55:04;100659.50;;;18.20;61.39
38716;BME280;24833;49.324;8.694;2023-06-24T04:57:32;100660.09;;;18.22;61.06
38716;BME280;24833;49.324;8.694;2023-06-24T05:00:01;100655.28;;;18.24;61.94
38716;BME280;24833;49.324;8.694;2023-06-24T05:02:28;100660.25;;;18.28;61.33
38716;BME280;24833;49.324;8.694;2023-06-24T05:04:56;100659.78;;;18.31;61.44
38716;BME280;24833;49.324;8.694;2023-06-24T05:07:23;100658.88;;;18.37;61.76
38716;BME280;24833;49.324;8.694;2023-06-24T05:09:50;100663.84;;;18.58;61.44
38716;BME280;24833;49.324;8.694;2023-06-24T05:12:18;100659.19;;;18.84;61.19
38716;BME280;24833;49.324;8.694;2023-06-24T05:14:52;100662.63;;;19.09;60.43
38716;BME280;24833;49.324;8.694;2023-06-24T05:17:20;100657.75;;;19.29;59.86
38716;BME280;24833;49.324;8.694;2023-06-24T05:19:47;100661.91;;;19.44;59.22
38716;BME280;24833;49.324;8.694;2023-06-24T05:22:14;100667.13;;;19.57;59.33
38716;BME280;24833;49.324;8.694;2023-06-24T05:24:41;100666.81;;;19.65;59.20
38716;BME280;24833;49.324;8.694;2023-06-24T05:27:09;100669.19;;;19.73;58.56
38716;BME280;24833;49.324;8.694;2023-06-24T05:29:36;100663.78;;;19.73;59.13
38716;BME280;24833;49.324;8.694;2023-06-24T05:32:03;100671.78;;;19.68;58.91
38716;BME280;24833;49.324;8.694;2023-06-24T05:34:31;100665.88;;;19.71;59.26
38716;BME280;24833;49.324;8.694;2023-06-24T05:36:58;100675.78;;;19.77;59.46
38716;BME280;24833;49.324;8.694;2023-06-24T05:39:25;100676.16;;;19.81;59.02
38716;BME280;24833;49.324;8.694;2023-06-24T05:41:52;100674.59;;;19.85;59.05
38716;BME280;24833;49.324;8.694;2023-06-24T05:44:20;100681.69;;;19.98;58.96
38716;BME280;24833;49.324;8.694;2023-06-24T05:46:47;100678.63;;;20.06;58.89
38716;BME280;24833;49.324;8.694;2023-06-24T05:49:14;100674.97;;;20.12;58.54
38716;BME280;24833;49.324;8.694;2023-06-24T05:51:41;100679.69;;;20.17;58.82
38716;BME280;24833;49.324;8.694;2023-06-24T05:54:08;100673.09;;;20.24;58.70
38716;BME280;24833;49.324;8.694;2023-06-24T05:56:36;100682.41;;;20.28;58.34
38716;BME280;24833;49.324;8.694;2023-06-24T05:59:06;100678.63;;;20.29;58.43
38716;BME280;24833;49.324;8.694;2023-06-24T06:01:33;100675.56;;;20.37;58.00
38716;BME280;24833;49.324;8.694;2023-06-24T06:04:00;100678.16;;;20.56;57.91
38716;BME280;24833;49.324;8.694;2023-06-24T06:06:27;100679.81;;;20.57;57.72
38716;BME280;24833;49.324;8.694;2023-06-24T06:08:56;100681.94;;;20.55;57.40
38716;BME280;24833;49.324;8.694;2023-06-24T06:11:24;100683.22;;;20.52;57.19
38716;BME280;24833;49.324;8.694;2023-06-24T06:13:51;100685.03;;;20.47;57.57
38716;BME280;24833;49.324;8.694;2023-06-24T06:16:21;100693.00;;;20.65;58.34
38716;BME280;24833;49.324;8.694;2023-06-24T06:18:48;100689.44;;;20.76;57.80
38716;BME280;24833;49.324;8.694;2023-06-24T06:21:16;100686.97;;;20.86;57.42
38716;BME280;24833;49.324;8.694;2023-06-24T06:23:43;100681.31;;;21.05;56.96
38716;BME280;24833;49.324;8.694;2023-06-24T06:26:10;100681.44;;;21.10;57.00
38716;BME280;24833;49.324;8.694;2023-06-24T06:28:37;100684.25;;;21.15;56.75
38716;BME280;24833;49.324;8.694;2023-06-24T06:31:04;100676.78;;;21.22;56.23
38716;BME280;24833;49.324;8.694;2023-06-24T06:33:31;100675.84;;;21.28;56.42
38716;BME280;24833;49.324;8.694;2023-06-24T06:35:58;100681.44;;;21.38;56.49
38716;BME280;24833;49.324;8.694;2023-06-24T06:38:26;100683.91;;;21.40;56.06
38716;BME280;24833;49.324;8.694;2023-06-24T06:40:53;100692.50;;;21.48;56.34
38716;BME280;24833;49.324;8.694;2023-06-24T06:43:20;100685.94;;;21.61;55.95
38716;BME280;24833;49.324;8.694;2023-06-24T06:45:48;100690.22;;;21.74;55.67
38716;BME280;24833;49.324;8.694;2023-06-24T06:48:17;100694.69;;;21.80;55.64
38716;BME280;24833;49.324;8.694;2023-06-24T06:50:45;100696.81;;;21.95;56.03
38716;BME280;24833;49.324;8.694;2023-06-24T06:53:12;100694.75;;;22.02;54.92
38716;BME280;24833;49.324;8.694;2023-06-24T06:55:39;100694.63;;;22.09;55.38
38716;BME280;24833;49.324;8.694;2023-06-24T06:58:06;100696.66;;;22.18;55.27
38716;BME280;24833;49.324;8.694;2023-06-24T07:00:34;100688.47;;;22.35;55.69
38716;BME280;24833;49.324;8.694;2023-06-24T07:03:01;100688.13;;;22.48;55.11
38716;BME280;24833;49.324;8.694;2023-06-24T07:05:29;100685.44;;;22.53;55.17
38716;BME280;24833;49.324;8.694;2023-06-24T07:07:56;100692.41;;;22.66;55.25
38716;BME280;24833;49.324;8.694;2023-06-24T07:10:23;100684.47;;;22.81;54.16
38716;BME280;24833;49.324;8.694;2023-06-24T07:12:50;100683.13;;;22.84;54.07
38716;BME280;24833;49.324;8.694;2023-06-24T07:15:18;100680.13;;;22.85;54.90
38716;BME280;24833;49.324;8.694;2023-06-24T07:17:46;100688.41;;;22.91;53.84
38716;BME280;24833;49.324;8.694;2023-06-24T07:20:13;100678.59;;;22.90;53.62
38716;BME280;24833;49.324;8.694;2023-06-24T07:22:40;100684.88;;;22.90;52.87
38716;BME280;24833;49.324;8.694;2023-06-24T07:25:07;100682.03;;;22.85;53.50
38716;BME280;24833;49.324;8.694;2023-06-24T07:27:34;100682.41;;;22.89;54.37
38716;BME280;24833;49.324;8.694;2023-06-24T07:30:01;100679.47;;;22.95;53.69
38716;BME280;24833;49.324;8.694;2023-06-24T07:32:29;100681.13;;;22.96;54.43
38716;BME280;24833;49.324;8.694;2023-06-24T07:34:56;100682.56;;;23.04;54.16
38716;BME280;24833;49.324;8.694;2023-06-24T07:37:23;100680.16;;;23.07;54.03
38716;BME280;24833;49.324;8.694;2023-06-24T07:39:51;100684.81;;;23.12;54.55
38716;BME280;24833;49.324;8.694;2023-06-24T07:42:18;100681.09;;;23.18;54.29
38716;BME280;24833;49.324;8.694;2023-06-24T07:44:47;100687.75;;;23.27;53.82
38716;BME280;24833;49.324;8.694;2023-06-24T07:47:17;100690.19;;;23.29;52.27
38716;BME280;24833;49.324;8.694;2023-06-24T07:49:45;100682.84;;;23.29;52.91
38716;BME280;24833;49.324;8.694;2023-06-24T07:52:12;100687.75;;;23.32;52.69
38716;BME280;24833;49.324;8.694;2023-06-24T07:54:40;100679.34;;;23.34;52.90
38716;BME280;24833;49.324;8.694;2023-06-24T07:57:07;100684.59;;;23.41;52.81
38716;BME280;24833;49.324;8.694;2023-06-24T07:59:34;100678.09;;;23.47;51.90
38716;BME280;24833;49.324;8.694;2023-06-24T08:02:01;100677.84;;;23.48;51.20
38716;BME280;24833;49.324;8.694;2023-06-24T08:04:28;100678.97;;;23.52;51.82
38716;BME280;24833;49.324;8.694;2023-06-24T08:06:55;100674.91;;;23.55;51.80
38716;BME280;24833;49.324;8.694;2023-06-24T08:09:23;100677.94;;;23.58;52.62
38716;BME280;24833;49.324;8.694;2023-06-24T08:11:50;100678.56;;;23.65;52.64
38716;BME280;24833;49.324;8.694;2023-06-24T08:14:17;100674.28;;;23.75;51.90
38716;BME280;24833;49.324;8.694;2023-06-24T08:16:44;100670.00;;;23.84;51.56
38716;BME280;24833;49.324;8.694;2023-06-24T08:19:11;100674.13;;;23.91;52.06
38716;BME280;24833;49.324;8.694;2023-06-24T08:21:38;100673.13;;;24.03;51.12
38716;BME280;24833;49.324;8.694;2023-06-24T08:24:06;100674.00;;;24.08;52.11
38716;BME280;24833;49.324;8.694;2023-06-24T08:26:33;100670.47;;;24.13;50.17
38716;BME280;24833;49.324;8.694;2023-06-24T08:29:00;100668.31;;;24.20;49.25
38716;BME280;24833;49.324;8.694;2023-06-24T08:31:30;100670.25;;;24.25;50.67
38716;BME280;24833;49.324;8.694;2023-06-24T08:33:59;100663.72;;;24.26;51.21
38716;BME280;24833;49.324;8.694;2023-06-24T08:36:29;100670.38;;;24.35;48.93
38716;BME280;24833;49.324;8.694;2023-06-24T08:38:56;100664.63;;;24.36;50.36
38716;BME280;24833;49.324;8.694;2023-06-24T08:41:24;100670.41;;;24.45;49.59
38716;BME280;24833;49.324;8.694;2023-06-24T08:43:53;100675.13;;;24.55;50.60
38716;BME280;24833;49.324;8.694;2023-06-24T08:46:26;100675.44;;;24.63;48.89
38716;BME280;24833;49.324;8.694;2023-06-24T08:49:05;100673.25;;;24.70;49.65
38716;BME280;24833;49.324;8.694;2023-06-24T08:51:40;100667.56;;;24.77;50.14
38716;BME280;24833;49.324;8.694;2023-06-24T08:54:09;100662.34;;;24.81;48.03
38716;BME280;24833;49.324;8.694;2023-06-24T08:56:37;100662.38;;;24.86;49.69
38716;BME280;24833;49.324;8.694;2023-06-24T08:59:09;100668.44;;;24.98;48.73
38716;BME280;24833;49.324;8.694;2023-06-24T09:01:36;100661.63;;;24.95;46.65
38716;BME280;24833;49.324;8.694;2023-06-24T09:04:04;100667.34;;;24.99;48.39
38716;BME280;24833;49.324;8.694;2023-06-24T09:06:31;100661.94;;;25.04;48.24
38716;BME280;24833;49.324;8.694;2023-06-24T09:08:58;100666.00;;;25.02;47.50
38716;BME280;24833;49.324;8.694;2023-06-24T09:11:27;100665.22;;;25.06;48.66
38716;BME280;24833;49.324;8.694;2023-06-24T09:13:56;100654.84;;;25.13;48.76
38716;BME280;24833;49.324;8.694;2023-06-24T09:16:24;100657.31;;;25.25;47.54
38716;BME280;24833;49.324;8.694;2023-06-24T09:18:52;100645.03;;;25.33;48.76
38716;BME280;24833;49.324;8.694;2023-06-24T09:21:27;100646.69;;;25.44;49.01
38716;BME280;24833;49.324;8.694;2023-06-24T09:23:58;100645.59;;;25.55;49.22
38716;BME280;24833;49.324;8.694;2023-06-24T09:26:27;100639.56;;;25.63;44.49
38716;BME280;24833;49.324;8.694;2023-06-24T09:28:54;100650.81;;;25.62;43.56
38716;BME280;24833;49.324;8.694;2023-06-24T09:31:22;100640.09;;;25.60;44.73
38716;BME280;24833;49.324;8.694;2023-06-24T09:33:50;100643.94;;;25.64;44.53
38716;BME280;24833;49.324;8.694;2023-06-24T09:36:17;100636.84;;;25.63;42.97
38716;BME280;24833;49.324;8.694;2023-06-24T09:38:45;100633.00;;;25.64;45.06
38716;BME280;24833;49.324;8.694;2023-06-24T09:41:14;100647.50;;;25.70;44.37
38716;BME280;24833;49.324;8.694;2023-06-24T09:43:43;100633.84;;;25.75;45.45
38716;BME280;24833;49.324;8.694;2023-06-24T09:46:12;100626.44;;;25.80;46.28
38716;BME280;24833;49.324;8.694;2023-06-24T09:48:39;100613.28;;;25.88;45.55
38716;BME280;24833;49.324;8.694;2023-06-24T09:51:07;100616.03;;;25.98;46.52
38716;BME280;24833;49.324;8.694;2023-06-24T09:53:35;100627.50;;;26.10;45.34
38716;BME280;24833;49.324;8.694;2023-06-24T09:56:04;100619.81;;;26.22;46.26
38716;BME280;24833;49.324;8.694;2023-06-24T09:58:35;100624.41;;;26.32;45.25
38716;BME280;24833;49.324;8.694;2023-06-24T10:01:04;100609.91;;;26.42;45.04
38716;BME280;24833;49.324;8.694;2023-06-24T10:03:35;100617.25;;;26.46;44.70
38716;BME280;24833;49.324;8.694;2023-06-24T10:06:05;100610.41;;;26.49;41.05
38716;BME280;24833;49.324;8.694;2023-06-24T10:08:33;100614.53;;;26.36;39.55
38716;BME280;24833;49.324;8.694;2023-06-24T10:11:00;100608.78;;;26.38;41.98
38716;BME280;24833;49.324;8.694;2023-06-24T10:13:43;100601.69;;;26.42;43.65
38716;BME280;24833;49.324;8.694;2023-06-24T10:16:10;100598.88;;;26.52;44.57
38716;BME280;24833;49.324;8.694;2023-06-24T10:18:39;100604.34;;;26.62;44.91
38716;BME280;24833;49.324;8.694;2023-06-24T10:21:08;100593.81;;;26.74;45.50
38716;BME280;24833;49.324;8.694;2023-06-24T10:23:53;100586.34;;;26.90;45.33
38716;BME280;24833;49.324;8.694;2023-06-24T10:26:29;100586.56;;;26.99;44.97
38716;BME280;24833;49.324;8.694;2023-06-24T10:29:10;100583.50;;;27.10;41.91
38716;BME280;24833;49.324;8.694;2023-06-24T10:37:20;100565.09;;;27.16;40.11
38716;BME280;24833;49.324;8.694;2023-06-24T10:39:51;100566.09;;;27.25;43.70
38716;BME280;24833;49.324;8.694;2023-06-24T10:42:39;100567.66;;;27.36;43.39
38716;BME280;24833;49.324;8.694;2023-06-24T10:50:07;100553.44;;;27.87;44.36
38716;BME280;24833;49.324;8.694;2023-06-24T10:52:52;100554.63;;;28.05;45.10
38716;BME280;24833;49.324;8.694;2023-06-24T10:55:24;100553.09;;;28.18;41.37
38716;BME280;24833;49.324;8.694;2023-06-24T10:57:52;100540.94;;;28.24;42.88
38716;BME280;24833;49.324;8.694;2023-06-24T11:00:21;100544.69;;;28.33;42.92
38716;BME280;24833;49.324;8.694;2023-06-24T11:02:49;100534.84;;;28.27;40.20
38716;BME280;24833;49.324;8.694;2023-06-24T11:05:16;100527.06;;;28.34;40.62
38716;BME280;24833;49.324;8.694;2023-06-24T11:07:43;100525.91;;;28.40;40.08
38716;BME280;24833;49.324;8.694;2023-06-24T11:10:13;100525.53;;;28.47;39.67
38716;BME280;24833;49.324;8.694;2023-06-24T11:12:42;100523.59;;;28.47;39.46
38716;BME280;24833;49.324;8.694;2023-06-24T11:15:13;100515.66;;;28.46;38.83
38716;BME280;24833;49.324;8.694;2023-06-24T11:17:41;100509.94;;;28.42;40.34
38716;BME280;24833;49.324;8.694;2023-06-24T11:20:12;100515.34;;;28.47;39.59
38716;BME280;24833;49.324;8.694;2023-06-24T11:22:43;100514.22;;;28.48;39.99
38716;BME280;24833;49.324;8.694;2023-06-24T11:25:19;100505.91;;;28.54;40.18
38716;BME280;24833;49.324;8.694;2023-06-24T11:27:50;100508.72;;;28.48;36.35
38716;BME280;24833;49.324;8.694;2023-06-24T11:30:19;100502.56;;;28.38;36.22
38716;BME280;24833;49.324;8.694;2023-06-24T11:32:46;100506.66;;;28.40;39.27
38716;BME280;24833;49.324;8.694;2023-06-24T11:35:15;100504.97;;;28.44;38.61
38716;BME280;24833;49.324;8.694;2023-06-24T11:37:44;100505.72;;;28.50;38.53
38716;BME280;24833;49.324;8.694;2023-06-24T11:40:16;100501.75;;;28.37;36.19
38716;BME280;24833;49.324;8.694;2023-06-24T11:42:45;100501.69;;;28.42;38.60
38716;BME280;24833;49.324;8.694;2023-06-24T11:45:14;100496.72;;;28.44;38.37
38716;BME280;24833;49.324;8.694;2023-06-24T11:47:46;100501.47;;;28.58;38.99
38716;BME280;24833;49.324;8.694;2023-06-24T11:50:15;100491.97;;;28.69;38.44
38716;BME280;24833;49.324;8.694;2023-06-24T11:52:45;100491.78;;;28.79;38.84
38716;BME280;24833;49.324;8.694;2023-06-24T11:55:19;100497.69;;;28.91;39.25
38716;BME280;24833;49.324;8.694;2023-06-24T11:58:03;100486.38;;;28.93;35.39
38716;BME280;24833;49.324;8.694;2023-06-24T12:00:38;100485.47;;;28.78;36.29
38716;BME280;24833;49.324;8.694;2023-06-24T12:03:07;100483.66;;;28.88;38.72
38716;BME280;24833;49.324;8.694;2023-06-24T12:05:39;100479.59;;;28.85;37.99
38716;BME280;24833;49.324;8.694;2023-06-24T12:08:13;100482.72;;;28.97;39.01
38716;BME280;24833;49.324;8.694;2023-06-24T12:10:45;100476.44;;;29.11;37.81
38716;BME280;24833;49.324;8.694;2023-06-24T12:13:12;100470.16;;;29.24;39.30
38716;BME280;24833;49.324;8.694;2023-06-24T12:15:39;100467.13;;;29.39;38.75
38716;BME280;24833;49.324;8.694;2023-06-24T12:18:07;100477.81;;;29.41;35.38
38716;BME280;24833;49.324;8.694;2023-06-24T12:20:34;100468.25;;;29.38;35.55
38716;BME280;24833;49.324;8.694;2023-06-24T12:23:05;100463.09;;;29.18;34.31
38716;BME280;24833;49.324;8.694;2023-06-24T12:25:32;100453.53;;;29.29;34.71
38716;BME280;24833;49.324;8.694;2023-06-24T12:28:00;100459.03;;;29.29;33.99
38716;BME280;24833;49.324;8.694;2023-06-24T12:30:27;100454.44;;;29.11;34.98
38716;BME280;24833;49.324;8.694;2023-06-24T12:32:55;100454.63;;;29.14;35.82
38716;BME280;24833;49.324;8.694;2023-06-24T12:35:23;100447.84;;;29.25;36.76
38716;BME280;24833;49.324;8.694;2023-06-24T12:37:53;100445.72;;;29.36;35.40
38716;BME280;24833;49.324;8.694;2023-06-24T12:40:20;100442.34;;;29.39;36.38
38716;BME280;24833;49.324;8.694;2023-06-24T12:42:47;100436.38;;;29.51;36.35
38716;BME280;24833;49.324;8.694;2023-06-24T12:45:14;100439.13;;;29.65;37.02
38716;BME280;24833;49.324;8.694;2023-06-24T12:47:41;100443.72;;;29.83;37.42
38716;BME280;24833;49.324;8.694;2023-06-24T12:50:09;100435.09;;;29.98;37.11
38716;BME280;24833;49.324;8.694;2023-06-24T12:52:37;100430.00;;;30.05;36.09
38716;BME280;24833;49.324;8.694;2023-06-24T12:55:06;100419.56;;;30.02;36.08
38716;BME280;24833;49.324;8.694;2023-06-24T12:57:35;100433.09;;;29.90;34.70
38716;BME280;24833;49.324;8.694;2023-06-24T13:00:04;100422.28;;;29.80;34.57
38716;BME280;24833;49.324;8.694;2023-06-24T13:02:35;100420.94;;;29.91;35.64
38716;BME280;24833;49.324;8.694;2023-06-24T13:05:03;100421.44;;;29.93;35.32
38716;BME280;24833;49.324;8.694;2023-06-24T13:07:31;100414.78;;;29.94;35.90
38716;BME280;24833;49.324;8.694;2023-06-24T13:09:59;100407.06;;;29.96;35.04
38716;BME280;24833;49.324;8.694;2023-06-24T13:12:26;100401.44;;;29.88;34.32
38716;BME280;24833;49.324;8.694;2023-06-24T13:14:53;100408.50;;;29.80;34.54